createdAt,value
2023-03-05T00:01:26.572Z,101187.28
2023-03-05T00:03:57.486Z,101193.28
2023-03-05T00:06:26.773Z,101183.00
2023-03-05T00:08:56.745Z,101173.53
2023-03-05T00:11:25.688Z,101165.66
2023-03-05T00:13:53.780Z,101155.47
2023-03-05T00:16:22.908Z,101158.13
2023-03-05T00:18:50.946Z,101159.84
2023-03-05T00:21:22.087Z,101160.78
2023-03-05T00:23:50.763Z,101153.03
2023-03-05T00:26:18.997Z,101145.22
2023-03-05T00:28:50.075Z,101152.16
2023-03-05T00:31:18.346Z,101142.81
2023-03-05T00:33:46.411Z,101142.63
2023-03-05T00:36:14.326Z,101141.91
2023-03-05T00:38:43.690Z,101137.72
2023-03-05T00:41:11.557Z,101138.50
2023-03-05T00:43:39.576Z,101141.84
2023-03-05T00:46:08.802Z,101138.56
2023-03-05T00:48:38.878Z,101131.59
2023-03-05T00:51:07.084Z,101132.41
2023-03-05T00:53:35.190Z,101131.66
2023-03-05T00:56:04.817Z,101125.69
2023-03-05T00:58:32.782Z,101131.53
2023-03-05T01:01:02.718Z,101128.25
2023-03-05T01:03:31.346Z,101116.94
2023-03-05T01:05:59.536Z,101119.50
2023-03-05T01:08:28.236Z,101120.34
2023-03-05T01:10:56.365Z,101119.56
2023-03-05T01:13:25.759Z,101105.00
2023-03-05T01:15:53.688Z,101116.09
2023-03-05T01:18:22.008Z,101105.84
2023-03-05T01:20:49.990Z,101106.63
2023-03-05T01:23:18.084Z,101094.00
2023-03-05T01:25:46.184Z,101102.41
2023-03-05T01:28:14.166Z,101087.94
2023-03-05T01:30:43.628Z,101077.63
2023-03-05T01:33:11.794Z,101092.94
2023-03-05T01:35:39.777Z,101081.00
2023-03-05T01:38:07.821Z,101072.34
2023-03-05T01:40:35.994Z,101064.72
2023-03-05T01:43:17.139Z,101067.28
2023-03-05T01:46:34.777Z,101076.75
2023-03-05T01:49:12.193Z,101067.31
2023-03-05T01:51:44.089Z,101069.03
2023-03-05T01:54:13.345Z,101070.72
2023-03-05T01:56:41.731Z,101069.06
2023-03-05T01:59:10.164Z,101074.13
2023-03-05T02:01:41.040Z,101053.59
2023-03-05T02:04:11.377Z,101051.81
2023-03-05T02:06:40.631Z,101052.69
2023-03-05T02:09:08.577Z,101044.19
2023-03-05T02:11:37.436Z,101046.69
2023-03-05T02:14:08.975Z,101050.13
2023-03-05T02:16:38.441Z,101041.47
2023-03-05T02:19:08.381Z,101050.03
2023-03-05T02:21:42.967Z,101044.00
2023-03-05T02:24:15.025Z,101036.31
2023-03-05T02:26:44.934Z,101049.09
2023-03-05T02:29:16.222Z,101042.41
2023-03-05T02:31:46.699Z,101044.00
2023-03-05T02:34:15.747Z,101044.00
2023-03-05T02:36:44.968Z,101033.81
2023-03-05T02:39:13.805Z,101026.06
2023-03-05T02:41:41.701Z,101023.50
2023-03-05T02:44:09.930Z,101027.69
2023-03-05T02:46:38.006Z,101014.06
2023-03-05T02:49:06.168Z,101016.78
2023-03-05T02:51:34.156Z,101011.56
2023-03-05T02:54:03.766Z,101009.91
2023-03-05T02:56:31.803Z,101008.13
2023-03-05T02:59:01.619Z,101009.91
2023-03-05T03:01:29.890Z,101002.97
2023-03-05T03:03:58.247Z,101004.72
2023-03-05T03:06:26.212Z,101000.47
2023-03-05T03:08:54.105Z,101012.38
2023-03-05T03:11:23.316Z,100995.25
2023-03-05T03:13:51.238Z,101003.81
2023-03-05T03:16:19.277Z,100991.03
2023-03-05T03:18:48.898Z,100993.44
2023-03-05T03:21:21.436Z,100986.81
2023-03-05T03:23:49.436Z,100992.75
2023-03-05T03:26:17.448Z,100974.66
2023-03-05T03:28:46.798Z,100981.66
2023-03-05T03:31:14.805Z,100961.13
2023-03-05T03:33:42.773Z,100956.78
2023-03-05T03:36:11.178Z,100964.50
2023-03-05T03:38:39.152Z,100971.34
2023-03-05T03:41:07.147Z,100976.56
2023-03-05T03:43:35.063Z,100973.09
2023-03-05T03:46:06.669Z,100967.81
2023-03-05T03:48:35.980Z,100951.53
2023-03-05T03:51:06.292Z,100944.72
2023-03-05T03:53:34.439Z,100953.25
2023-03-05T03:56:02.322Z,100949.75
2023-03-05T03:58:30.790Z,100942.94
2023-03-05T04:00:58.649Z,100951.47
2023-03-05T04:03:27.899Z,100944.59
2023-03-05T04:05:55.712Z,100947.97
2023-03-05T04:08:23.611Z,100938.69
2023-03-05T04:10:51.469Z,100941.31
2023-03-05T04:13:19.415Z,100944.59
2023-03-05T04:15:47.403Z,100937.69
2023-03-05T04:18:15.342Z,100929.94
2023-03-05T04:20:44.561Z,100930.00
2023-03-05T04:23:12.468Z,100941.06
2023-03-05T04:25:40.480Z,100933.28
2023-03-05T04:28:08.405Z,100914.47
2023-03-05T04:30:36.464Z,100923.03
2023-03-05T04:33:04.442Z,100919.47
2023-03-05T04:35:32.870Z,100931.44
2023-03-05T04:38:02.195Z,100935.56
2023-03-05T04:40:30.255Z,100923.69
2023-03-05T04:42:58.214Z,100926.09
2023-03-05T04:45:26.359Z,100921.88
2023-03-05T04:47:54.411Z,100928.66
2023-03-05T04:50:22.606Z,100930.31
2023-03-05T04:52:50.484Z,100920.94
2023-03-05T04:55:19.955Z,100926.94
2023-03-05T04:57:47.972Z,100929.38
2023-03-05T05:00:18.196Z,100924.22
2023-03-05T05:02:47.628Z,100930.13
2023-03-05T05:05:19.545Z,100921.59
2023-03-05T05:07:47.593Z,100922.44
2023-03-05T05:10:20.034Z,100921.66
2023-03-05T05:12:47.998Z,100927.44
2023-03-05T05:15:16.253Z,100918.88
2023-03-05T05:17:44.412Z,100924.19
2023-03-05T05:20:13.488Z,100927.47
2023-03-05T05:22:41.640Z,100921.56
2023-03-05T05:25:10.565Z,100921.53
2023-03-05T05:27:40.636Z,100924.91
2023-03-05T05:30:10.268Z,100928.38
2023-03-05T05:32:38.231Z,100931.78
2023-03-05T05:35:06.960Z,100925.72
2023-03-05T05:37:34.927Z,100921.56
2023-03-05T05:40:04.315Z,100925.69
2023-03-05T05:42:32.676Z,100937.72
2023-03-05T05:45:03.009Z,100931.75
2023-03-05T05:47:31.273Z,100924.91
2023-03-05T05:49:59.253Z,100926.56
2023-03-05T05:52:27.152Z,100926.50
2023-03-05T05:54:54.976Z,100925.69
2023-03-05T05:57:22.952Z,100924.16
2023-03-05T05:59:50.858Z,100927.56
2023-03-05T06:02:20.306Z,100931.13
2023-03-05T06:04:48.336Z,100919.84
2023-03-05T06:07:16.221Z,100920.75
2023-03-05T06:09:44.160Z,100931.00
2023-03-05T06:12:12.403Z,100931.81
2023-03-05T06:14:40.223Z,100932.94
2023-03-05T06:17:08.967Z,100926.00
2023-03-05T06:19:39.059Z,100927.69
2023-03-05T06:22:07.173Z,100917.41
2023-03-05T06:24:34.986Z,100920.91
2023-03-05T06:27:02.983Z,100913.22
2023-03-05T06:29:30.874Z,100925.34
2023-03-05T06:31:58.782Z,100919.28
2023-03-05T06:34:26.768Z,100920.16
2023-03-05T06:36:56.035Z,100932.22
2023-03-05T06:39:23.911Z,100919.47
2023-03-05T06:41:52.268Z,100922.13
2023-03-05T06:44:20.214Z,100930.63
2023-03-05T06:46:48.074Z,100926.38
2023-03-05T06:49:16.092Z,100922.91
2023-03-05T06:51:43.992Z,100919.75
2023-03-05T06:54:15.491Z,100913.63
2023-03-05T06:56:45.229Z,100924.66
2023-03-05T06:59:14.167Z,100929.94
2023-03-05T07:01:42.059Z,100926.66
2023-03-05T07:04:10.040Z,100931.72
2023-03-05T07:06:39.389Z,100931.59
2023-03-05T07:09:08.681Z,100934.19
2023-03-05T07:11:38.039Z,100924.72
2023-03-05T07:14:05.987Z,100937.34
2023-03-05T07:16:35.107Z,100932.47
2023-03-05T07:19:05.083Z,100932.59
2023-03-05T07:21:35.971Z,100937.66
2023-03-05T07:24:05.933Z,100941.09
2023-03-05T07:26:34.475Z,100937.69
2023-03-05T07:29:03.775Z,100932.53
2023-03-05T07:31:32.243Z,100944.59
2023-03-05T07:34:01.906Z,100940.31
2023-03-05T07:36:31.674Z,100947.97
2023-03-05T07:38:59.579Z,100939.31
2023-03-05T07:41:27.663Z,100939.34
2023-03-05T07:43:56.265Z,100930.06
2023-03-05T07:46:30.860Z,100938.13
2023-03-05T07:48:59.133Z,100926.28
2023-03-05T07:51:28.185Z,100925.25
2023-03-05T07:53:57.516Z,100939.03
2023-03-05T07:56:27.164Z,100923.44
2023-03-05T07:58:55.096Z,100934.03
2023-03-05T08:01:23.057Z,100909.84
2023-03-05T08:03:52.421Z,100921.78
2023-03-05T08:06:20.324Z,100920.84
2023-03-05T08:08:48.187Z,100918.13
2023-03-05T08:11:17.141Z,100924.88
2023-03-05T08:13:46.074Z,100919.69
2023-03-05T08:16:15.457Z,100920.06
2023-03-05T08:18:43.428Z,100924.63
2023-03-05T08:21:19.284Z,100916.25
2023-03-05T08:23:47.525Z,100920.16
2023-03-05T08:26:16.410Z,100921.59
2023-03-05T08:28:44.348Z,100916.63
2023-03-05T08:31:14.292Z,100910.66
2023-03-05T08:33:42.305Z,100922.72
2023-03-05T08:36:10.647Z,100906.63
2023-03-05T08:38:39.924Z,100905.28
2023-03-05T08:41:09.089Z,100911.88
2023-03-05T08:43:37.187Z,100897.09
2023-03-05T08:46:05.474Z,100899.53
2023-03-05T08:48:34.730Z,100910.09
2023-03-05T08:51:07.011Z,100905.06
2023-03-05T08:53:35.190Z,100906.75
2023-03-05T08:56:05.001Z,100896.59
2023-03-05T08:58:33.236Z,100907.81
2023-03-05T09:01:01.298Z,100892.88
2023-03-05T09:03:29.414Z,100899.72
2023-03-05T09:06:00.996Z,100902.56
2023-03-05T09:08:29.276Z,100904.97
2023-03-05T09:10:57.716Z,100895.78
2023-03-05T09:13:27.023Z,100893.38
2023-03-05T09:15:55.835Z,100894.16
2023-03-05T09:18:23.811Z,100895.88
2023-03-05T09:20:51.773Z,100905.28
2023-03-05T09:23:19.899Z,100890.38
2023-03-05T09:25:47.793Z,100896.72
2023-03-05T09:28:15.719Z,100890.78
2023-03-05T09:30:44.900Z,100901.88
2023-03-05T09:33:12.883Z,100904.19
2023-03-05T09:35:40.983Z,100900.75
2023-03-05T09:38:09.036Z,100895.63
2023-03-05T09:40:45.276Z,100897.34
2023-03-05T09:43:20.259Z,100887.19
2023-03-05T09:46:06.986Z,100896.53
2023-03-05T09:48:45.754Z,100902.56
2023-03-05T09:51:17.344Z,100905.81
2023-03-05T09:53:47.928Z,100908.34
2023-03-05T09:56:18.160Z,100894.03
2023-03-05T09:58:48.658Z,100898.66
2023-03-05T10:01:20.702Z,100896.84
2023-03-05T10:03:56.899Z,100900.41
2023-03-05T10:06:26.710Z,100889.16
2023-03-05T10:08:57.855Z,100894.13
2023-03-05T10:11:46.352Z,100886.44
2023-03-05T10:14:16.883Z,100879.06
2023-03-05T10:17:02.243Z,100877.34
2023-03-05T10:19:56.486Z,100888.63
2023-03-05T10:22:25.466Z,100875.69
2023-03-05T10:25:07.316Z,100879.91
2023-03-05T10:27:43.884Z,100881.56
2023-03-05T10:30:26.980Z,100881.56
2023-03-05T10:33:00.914Z,100885.78
2023-03-05T10:35:48.014Z,100889.28
2023-03-05T10:38:41.102Z,100883.47
2023-03-05T10:41:14.082Z,100876.75
2023-03-05T10:43:48.200Z,100861.31
2023-03-05T10:46:18.202Z,100852.75
2023-03-05T10:48:50.961Z,100845.88
2023-03-05T10:51:23.022Z,100848.44
2023-03-05T10:53:56.438Z,100850.16
2023-03-05T10:56:27.156Z,100842.47
2023-03-05T10:58:55.637Z,100862.16
2023-03-05T11:01:25.170Z,100852.75
2023-03-05T11:03:56.793Z,100858.72
2023-03-05T11:06:31.072Z,100858.75
2023-03-05T11:09:16.946Z,100851.84
2023-03-05T11:11:45.073Z,100845.84
2023-03-05T11:14:30.004Z,100863.00
2023-03-05T11:16:58.418Z,100852.75
2023-03-05T11:19:31.688Z,100855.31
2023-03-05T11:22:10.948Z,100841.50
2023-03-05T11:24:39.374Z,100842.13
2023-03-05T11:27:25.528Z,100826.28
2023-03-05T11:29:53.813Z,100830.78
2023-03-05T11:32:23.890Z,100833.75
2023-03-05T11:34:55.979Z,100835.53
2023-03-05T11:37:26.713Z,100828.09
2023-03-05T11:40:22.258Z,100823.78
2023-03-05T11:42:55.725Z,100807.06
2023-03-05T11:45:25.187Z,100805.44
2023-03-05T11:47:55.657Z,100813.56
2023-03-05T11:50:27.166Z,100814.69
2023-03-05T11:52:57.117Z,100810.97
2023-03-05T11:55:29.030Z,100799.47
2023-03-05T11:58:04.783Z,100806.41
2023-03-05T12:00:34.307Z,100797.63
2023-03-05T12:03:06.439Z,100775.88
2023-03-05T12:05:35.995Z,100791.41
2023-03-05T12:08:05.880Z,100790.25
2023-03-05T12:10:33.932Z,100779.09
2023-03-05T12:13:08.149Z,100765.66
2023-03-05T12:15:51.335Z,100764.09
2023-03-05T12:18:21.412Z,100777.47
2023-03-05T12:20:57.101Z,100772.81
2023-03-05T12:23:27.090Z,100767.41
2023-03-05T12:25:57.042Z,100772.56
2023-03-05T12:28:59.179Z,100760.41
2023-03-05T12:31:37.896Z,100775.69
2023-03-05T12:34:38.164Z,100745.41
2023-03-05T12:37:11.859Z,100752.16
2023-03-05T12:39:52.795Z,100742.09
2023-03-05T12:42:55.131Z,100754.94
2023-03-05T12:45:34.873Z,100749.50
2023-03-05T12:48:39.844Z,100751.22
2023-03-05T12:51:07.850Z,100750.81
2023-03-05T12:53:37.128Z,100741.69
2023-03-05T12:56:14.878Z,100744.38
2023-03-05T12:58:44.845Z,100735.34
2023-03-05T13:01:30.634Z,100718.88
2023-03-05T13:04:00.662Z,100717.44
2023-03-05T13:06:31.247Z,100731.69
2023-03-05T13:09:03.501Z,100726.78
2023-03-05T13:11:34.427Z,100719.47
2023-03-05T13:14:03.251Z,100716.44
2023-03-05T13:16:37.454Z,100739.59
2023-03-05T13:19:05.703Z,100747.31
2023-03-05T13:21:35.432Z,100733.03
2023-03-05T13:24:05.015Z,100716.09
2023-03-05T13:26:38.941Z,100720.19
2023-03-05T13:29:10.396Z,100741.84
2023-03-05T13:31:43.312Z,100749.69
2023-03-05T13:34:17.250Z,100744.03
2023-03-05T13:36:50.655Z,100729.09
2023-03-05T13:39:27.348Z,100719.00
2023-03-05T13:42:04.724Z,100698.19
2023-03-05T13:44:33.375Z,100710.78
2023-03-05T13:47:09.466Z,100683.09
2023-03-05T13:49:37.518Z,100683.75
2023-03-05T13:52:06.512Z,100690.97
2023-03-05T13:54:35.776Z,100675.41
2023-03-05T13:57:05.450Z,100693.97
2023-03-05T13:59:35.133Z,100693.22
2023-03-05T14:02:05.981Z,100665.94
2023-03-05T14:04:37.490Z,100647.28
2023-03-05T14:07:07.535Z,100649.59
2023-03-05T14:09:47.452Z,100642.59
2023-03-05T14:12:27.221Z,100640.38
2023-03-05T14:14:55.423Z,100646.19
2023-03-05T14:17:33.341Z,100647.22
2023-03-05T14:20:10.673Z,100636.56
2023-03-05T14:22:40.076Z,100631.16
2023-03-05T14:25:33.816Z,100618.88
2023-03-05T14:28:02.356Z,100623.44
2023-03-05T14:30:31.379Z,100620.66
2023-03-05T14:33:00.976Z,100632.34
2023-03-05T14:35:30.234Z,100646.41
2023-03-05T14:37:59.337Z,100644.44
2023-03-05T14:40:31.737Z,100651.56
2023-03-05T14:43:01.974Z,100671.91
2023-03-05T14:45:31.624Z,100652.00
2023-03-05T14:48:01.198Z,100638.03
2023-03-05T14:50:30.551Z,100637.84
2023-03-05T14:53:00.821Z,100629.09
2023-03-05T14:55:31.770Z,100609.75
2023-03-05T14:58:04.452Z,100618.72
2023-03-05T15:00:35.404Z,100624.81
2023-03-05T15:03:03.906Z,100614.63
2023-03-05T15:05:32.125Z,100615.34
2023-03-05T15:08:00.704Z,100606.44
2023-03-05T15:10:28.804Z,100604.25
2023-03-05T15:12:56.836Z,100586.16
2023-03-05T15:15:26.238Z,100595.88
2023-03-05T15:17:55.149Z,100593.56
2023-03-05T15:20:25.172Z,100584.53
2023-03-05T15:22:53.358Z,100601.75
2023-03-05T15:25:22.540Z,100600.91
2023-03-05T15:27:51.014Z,100601.66
2023-03-05T15:30:23.367Z,100593.38
2023-03-05T15:32:55.994Z,100591.47
2023-03-05T15:35:25.396Z,100595.69
2023-03-05T15:37:54.060Z,100588.78
2023-03-05T15:40:23.902Z,100593.84
2023-03-05T15:42:52.353Z,100591.91
2023-03-05T15:45:20.587Z,100587.84
2023-03-05T15:47:50.055Z,100603.34
2023-03-05T15:50:19.526Z,100618.72
2023-03-05T15:52:47.853Z,100623.75
2023-03-05T15:55:16.077Z,100613.06
2023-03-05T15:57:45.751Z,100595.63
2023-03-05T16:00:15.527Z,100606.06
2023-03-05T16:02:43.513Z,100609.25
2023-03-05T16:05:11.847Z,100602.31
2023-03-05T16:07:44.014Z,100604.75
2023-03-05T16:10:14.912Z,100603.16
2023-03-05T16:12:43.122Z,100611.91
2023-03-05T16:15:12.475Z,100612.50
2023-03-05T16:17:42.570Z,100624.31
2023-03-05T16:20:12.978Z,100627.88
2023-03-05T16:22:42.308Z,100632.28
2023-03-05T16:25:10.866Z,100627.13
2023-03-05T16:27:38.784Z,100625.44
2023-03-05T16:30:08.077Z,100619.41
2023-03-05T16:32:36.313Z,100617.66
2023-03-05T16:35:04.693Z,100609.94
2023-03-05T16:37:32.623Z,100608.25
2023-03-05T16:40:02.028Z,100615.03
2023-03-05T16:42:29.981Z,100614.16
2023-03-05T16:44:59.179Z,100603.03
2023-03-05T16:47:28.599Z,100612.44
2023-03-05T16:49:56.599Z,100615.78
2023-03-05T16:52:24.839Z,100613.16
2023-03-05T16:54:52.911Z,100605.44
2023-03-05T16:57:24.059Z,100611.41
2023-03-05T16:59:52.282Z,100606.28
2023-03-05T17:02:21.738Z,100602.84
2023-03-05T17:04:50.505Z,100606.22
2023-03-05T17:07:18.861Z,100614.75
2023-03-05T17:09:47.980Z,100611.28
2023-03-05T17:12:16.076Z,100609.59
2023-03-05T17:14:45.442Z,100610.41
2023-03-05T17:17:13.593Z,100616.38
2023-03-05T17:19:41.625Z,100611.19
2023-03-05T17:22:11.587Z,100612.03
2023-03-05T17:24:42.828Z,100612.09
2023-03-05T17:27:13.015Z,100615.44
2023-03-05T17:29:41.017Z,100617.94
2023-03-05T17:32:10.447Z,100612.72
2023-03-05T17:34:38.709Z,100610.19
2023-03-05T17:37:07.115Z,100605.84
2023-03-05T17:39:35.403Z,100600.72
2023-03-05T17:42:03.432Z,100595.53
2023-03-05T17:44:31.428Z,100598.94
2023-03-05T17:46:59.403Z,100600.53
2023-03-05T17:49:28.762Z,100591.16
2023-03-05T17:51:57.193Z,100591.16
2023-03-05T17:54:25.234Z,100586.84
2023-03-05T17:56:55.254Z,100594.50
2023-03-05T17:59:23.655Z,100591.97
2023-03-05T18:01:51.722Z,100602.22
2023-03-05T18:04:20.559Z,100594.53
2023-03-05T18:06:49.924Z,100587.63
2023-03-05T18:09:17.982Z,100589.31
2023-03-05T18:11:46.092Z,100591.00
2023-03-05T18:14:16.720Z,100595.31
2023-03-05T18:16:44.960Z,100588.41
2023-03-05T18:19:12.966Z,100582.38
2023-03-05T18:21:41.804Z,100587.41
2023-03-05T18:24:11.121Z,100577.16
2023-03-05T18:26:39.183Z,100582.25
2023-03-05T18:29:07.143Z,100580.56
2023-03-05T18:31:35.118Z,100572.94
2023-03-05T18:34:03.438Z,100580.59
2023-03-05T18:36:31.473Z,100570.38
2023-03-05T18:38:59.452Z,100568.75
2023-03-05T18:41:31.031Z,100560.16
2023-03-05T18:43:59.167Z,100566.91
2023-03-05T18:46:27.164Z,100563.53
2023-03-05T18:48:55.245Z,100555.00
2023-03-05T18:51:23.213Z,100550.66
2023-03-05T18:53:51.949Z,100546.41
2023-03-05T18:56:19.961Z,100554.91
2023-03-05T18:58:49.300Z,100552.34
2023-03-05T19:01:18.138Z,100548.91
2023-03-05T19:03:46.221Z,100548.91
2023-03-05T19:06:14.701Z,100543.00
2023-03-05T19:08:43.168Z,100539.56
2023-03-05T19:11:16.314Z,100536.16
2023-03-05T19:13:45.838Z,100536.97
2023-03-05T19:16:17.028Z,100539.63
2023-03-05T19:19:16.488Z,100541.31
2023-03-05T19:21:46.500Z,100544.75
2023-03-05T19:24:14.699Z,100539.66
2023-03-05T19:26:43.040Z,100538.00
2023-03-05T19:29:11.251Z,100529.44
2023-03-05T19:31:41.171Z,100527.69
2023-03-05T19:34:09.464Z,100524.28
2023-03-05T19:36:37.575Z,100521.72
2023-03-05T19:39:08.286Z,100523.41
2023-03-05T19:41:36.736Z,100514.84
2023-03-05T19:44:05.208Z,100512.31
2023-03-05T19:46:33.228Z,100510.53
2023-03-05T19:49:02.589Z,100507.13
2023-03-05T19:51:30.771Z,100507.97
2023-03-05T19:53:58.644Z,100499.41
2023-03-05T19:56:26.901Z,100499.44
2023-03-05T19:58:54.805Z,100492.63
2023-03-05T20:01:23.890Z,100489.34
2023-03-05T20:03:53.676Z,100490.94
2023-03-05T20:06:23.891Z,100482.50
2023-03-05T20:08:51.905Z,100481.59
2023-03-05T20:11:21.362Z,100482.44
2023-03-05T20:13:49.460Z,100478.13
2023-03-05T20:16:18.745Z,100480.69
2023-03-05T20:18:47.269Z,100472.94
2023-03-05T20:21:21.448Z,100468.69
2023-03-05T20:23:50.937Z,100476.41
2023-03-05T20:26:19.478Z,100466.97
2023-03-05T20:28:47.577Z,100466.88
2023-03-05T20:31:15.635Z,100454.06
2023-03-05T20:33:43.677Z,100454.09
2023-03-05T20:36:11.564Z,100452.41
2023-03-05T20:38:39.579Z,100444.69
2023-03-05T20:41:10.412Z,100448.97
2023-03-05T20:43:40.849Z,100436.19
2023-03-05T20:46:16.065Z,100442.94
2023-03-05T20:48:44.188Z,100433.56
2023-03-05T20:51:13.782Z,100433.50
2023-03-05T20:53:41.932Z,100427.59
2023-03-05T20:56:14.568Z,100424.16
2023-03-05T20:58:42.601Z,100424.94
2023-03-05T21:01:10.592Z,100409.59
2023-03-05T21:03:38.886Z,100415.63
2023-03-05T21:06:07.580Z,100407.13
2023-03-05T21:08:35.585Z,100394.28
2023-03-05T21:11:06.652Z,100391.69
2023-03-05T21:13:36.348Z,100389.16
2023-03-05T21:16:07.415Z,100385.66
2023-03-05T21:18:35.590Z,100374.66
2023-03-05T21:21:03.920Z,100378.06
2023-03-05T21:23:31.912Z,100363.66
2023-03-05T21:25:59.937Z,100362.75
2023-03-05T21:28:29.490Z,100359.31
2023-03-05T21:30:58.686Z,100361.84
2023-03-05T21:33:28.472Z,100353.34
2023-03-05T21:35:58.115Z,100348.22
2023-03-05T21:38:29.806Z,100343.94
2023-03-05T21:40:59.573Z,100343.97
2023-03-05T21:43:28.173Z,100336.25
2023-03-05T21:45:57.295Z,100333.69
2023-03-05T21:48:26.877Z,100328.63
2023-03-05T21:50:55.315Z,100323.50
2023-03-05T21:53:23.823Z,100323.59
2023-03-05T21:56:25.556Z,100326.13
2023-03-05T21:58:54.293Z,100321.03
2023-03-05T22:01:22.440Z,100320.19
2023-03-05T22:03:51.899Z,100311.56
2023-03-05T22:06:20.787Z,100310.75
2023-03-05T22:08:48.932Z,100304.81
2023-03-05T22:11:18.951Z,100312.50
2023-03-05T22:13:46.909Z,100299.69
2023-03-05T22:16:22.360Z,100301.38
2023-03-05T22:18:51.818Z,100292.00
2023-03-05T22:21:21.178Z,100291.22
2023-03-05T22:23:50.114Z,100292.78
2023-03-05T22:26:18.316Z,100282.59
2023-03-05T22:28:46.318Z,100284.25
2023-03-05T22:31:21.806Z,100281.69
2023-03-05T22:33:51.161Z,100272.34
2023-03-05T22:36:19.460Z,100270.63
2023-03-05T22:38:47.630Z,100262.94
2023-03-05T22:41:17.226Z,100257.81
2023-03-05T22:43:45.179Z,100262.09
2023-03-05T22:46:14.630Z,100252.69
2023-03-05T22:48:42.853Z,100252.69
2023-03-05T22:51:12.588Z,100259.47
2023-03-05T22:53:41.104Z,100262.00
2023-03-05T22:56:09.861Z,100241.50
2023-03-05T22:58:38.242Z,100240.66
2023-03-05T23:01:12.011Z,100233.81
2023-03-05T23:03:40.284Z,100226.09
2023-03-05T23:06:08.982Z,100238.09
2023-03-05T23:08:38.282Z,100232.91
2023-03-05T23:11:10.781Z,100224.38
2023-03-05T23:13:39.240Z,100214.97
2023-03-05T23:16:07.824Z,100215.88
2023-03-05T23:18:35.758Z,100210.78
2023-03-05T23:21:03.685Z,100200.47
2023-03-05T23:23:31.676Z,100190.22
2023-03-05T23:26:01.211Z,100180.00
2023-03-05T23:28:29.240Z,100172.28
2023-03-05T23:30:58.664Z,100163.69
2023-03-05T23:33:26.635Z,100152.69
2023-03-05T23:35:55.837Z,100137.31
2023-03-05T23:38:24.310Z,100127.97
2023-03-05T23:40:54.307Z,100113.41
2023-03-05T23:43:25.616Z,100113.44
2023-03-05T23:45:55.084Z,100104.88
2023-03-05T23:48:23.915Z,100095.50
2023-03-05T23:50:52.216Z,100084.44
2023-03-05T23:53:21.698Z,100079.28
2023-03-05T23:55:50.366Z,100069.03
2023-03-05T23:58:20.313Z,100062.22
